Time;durP1;ratioP1;P1;durP2;ratioP2;P2;SDS_P1;SDS_P2;PMS_P1;PMS_P2;Temp;Humidity;BMP_temperature;BMP_pressure;BME280_temperature;BME280_humidity;BME280_pressure;Samples;Min_cycle;Max_cycle;Signal;HPM_P1;HPM_P2
2022/07/11 00:02:12;;;;;;;2.85;2.08;;;;;;;;;;5070459;28;20036;-69
2022/07/11 00:04:39;;;;;;;3.92;1.40;;;;;;;;;;5067184;28;20051;-69
2022/07/11 00:07:05;;;;;;;3.40;1.27;;;;;;;;;;5068836;28;20028;-69
2022/07/11 00:09:32;;;;;;;2.60;1.30;;;;;;;;;;5070894;28;20394;-69
2022/07/11 00:11:59;;;;;;;2.65;1.17;;;;;;;;;;5067272;28;20021;-69
2022/07/11 00:14:25;;;;;;;6.85;1.23;;;;;;;;;;5069970;28;20027;-70
2022/07/11 00:16:55;;;;;;;2.92;1.30;;;;;;;;;;5069812;28;20020;-69
2022/07/11 00:19:22;;;;;;;1.75;1.30;;;;;;;;;;5067626;28;20031;-69
2022/07/11 00:21:48;;;;;;;4.32;1.30;;;;;;;;;;5070363;28;20531;-69
2022/07/11 00:24:17;;;;;;;2.00;1.27;;;;;;;;;;5070523;28;20025;-69
2022/07/11 00:26:44;;;;;;;2.58;1.10;;;;;;;;;;5069487;28;20027;-69
2022/07/11 00:29:10;;;;;;;1.42;1.25;;;;;;;;;;5069970;28;20021;-69
2022/07/11 00:31:36;;;;;;;5.07;1.10;;;;;;;;;;5069686;28;20023;-69
2022/07/11 00:34:03;;;;;;;1.38;1.25;;;;;;;;;;5070092;28;20021;-69
2022/07/11 00:36:29;;;;;;;1.30;1.17;;;;;;;;;;5071021;28;20027;-68
2022/07/11 00:38:55;;;;;;;1.48;1.30;;;;;;;;;;5069817;28;20028;-69
2022/07/11 00:41:22;;;;;;;1.67;1.25;;;;;;;;;;5069810;28;20028;-69
2022/07/11 00:43:55;;;;;;;1.92;1.10;;;;;;;;;;5069764;28;20102;-69
2022/07/11 00:46:23;;;;;;;4.72;1.30;;;;;;;;;;5067479;28;20020;-69
2022/07/11 00:48:49;;;;;;;2.42;1.10;;;;;;;;;;5069007;28;20442;-69
2022/07/11 00:51:17;;;;;;;1.52;1.33;;;;;;;;;;5070596;28;20024;-69
2022/07/11 00:53:43;;;;;;;1.35;1.23;;;;;;;;;;5069853;28;20023;-69
2022/07/11 00:56:10;;;;;;;2.40;1.20;;;;;;;;;;5069286;28;20374;-69
2022/07/11 00:58:37;;;;;;;1.55;1.42;;;;;;;;;;5069548;28;20036;-69
2022/07/11 01:01:03;;;;;;;1.55;0.98;;;;;;;;;;5068353;28;20099;-69
2022/07/11 01:03:29;;;;;;;2.40;1.30;;;;;;;;;;5073322;28;20073;-69
2022/07/11 01:05:56;;;;;;;6.72;1.50;;;;;;;;;;5073175;28;20029;-69
2022/07/11 01:08:22;;;;;;;3.25;1.33;;;;;;;;;;5071849;28;20470;-69
2022/07/11 01:10:48;;;;;;;4.82;1.50;;;;;;;;;;5072503;28;20016;-69
2022/07/11 01:13:15;;;;;;;1.65;1.30;;;;;;;;;;5073130;28;20025;-69
2022/07/11 01:15:41;;;;;;;4.85;1.13;;;;;;;;;;5071870;28;20481;-69
2022/07/11 01:18:08;;;;;;;4.90;1.40;;;;;;;;;;5073241;28;20044;-69
2022/07/11 01:20:34;;;;;;;2.50;1.23;;;;;;;;;;5072915;28;20094;-69
2022/07/11 01:23:04;;;;;;;1.38;1.27;;;;;;;;;;5072754;28;20025;-68
2022/07/11 01:25:31;;;;;;;1.80;1.17;;;;;;;;;;5072692;28;20012;-69
2022/07/11 01:28:00;;;;;;;2.03;1.27;;;;;;;;;;5073051;28;20493;-69
2022/07/11 01:30:27;;;;;;;4.13;1.40;;;;;;;;;;5072146;28;20404;-69
2022/07/11 01:32:54;;;;;;;2.40;1.23;;;;;;;;;;5072522;28;20040;-69
2022/07/11 01:35:20;;;;;;;1.50;1.40;;;;;;;;;;5070141;28;20027;-69
2022/07/11 01:37:47;;;;;;;5.60;1.15;;;;;;;;;;5072218;28;20503;-69
2022/07/11 01:40:13;;;;;;;1.98;1.40;;;;;;;;;;5071949;28;20028;-69
2022/07/11 01:42:40;;;;;;;2.80;1.40;;;;;;;;;;5073762;28;20033;-69
2022/07/11 01:45:06;;;;;;;1.92;1.27;;;;;;;;;;5072587;28;20021;-68
2022/07/11 01:47:33;;;;;;;2.50;1.42;;;;;;;;;;5072452;28;20013;-69
2022/07/11 01:49:59;;;;;;;1.40;1.30;;;;;;;;;;5072350;28;20435;-69
2022/07/11 01:52:26;;;;;;;9.10;1.30;;;;;;;;;;5072195;28;20024;-68
2022/07/11 01:54:52;;;;;;;1.45;1.33;;;;;;;;;;5072288;28;20016;-69
2022/07/11 01:57:19;;;;;;;2.28;1.40;;;;;;;;;;5073405;28;20029;-69
2022/07/11 01:59:46;;;;;;;2.95;1.10;;;;;;;;;;5072110;28;20057;-69
2022/07/11 02:02:13;;;;;;;2.55;1.40;;;;;;;;;;5072272;28;20020;-68
2022/07/11 02:04:40;;;;;;;2.92;1.40;;;;;;;;;;5070926;28;20025;-69
2022/07/11 02:07:06;;;;;;;1.80;1.38;;;;;;;;;;5070525;28;20046;-69
2022/07/11 02:09:32;;;;;;;4.05;1.35;;;;;;;;;;5073352;28;20522;-69
2022/07/11 02:11:59;;;;;;;3.58;1.58;;;;;;;;;;5071840;28;20408;-69
2022/07/11 02:14:25;;;;;;;1.70;1.38;;;;;;;;;;5071537;28;20019;-69
2022/07/11 02:16:51;;;;;;;2.53;1.60;;;;;;;;;;5070683;28;20035;-69
2022/07/11 02:19:17;;;;;;;1.92;1.40;;;;;;;;;;5071852;28;20038;-69
2022/07/11 02:21:44;;;;;;;1.40;1.30;;;;;;;;;;5072744;28;20377;-69
2022/07/11 02:24:10;;;;;;;1.77;1.35;;;;;;;;;;5071866;28;20025;-69
2022/07/11 02:26:36;;;;;;;2.05;1.20;;;;;;;;;;5071862;28;20030;-69
2022/07/11 02:29:03;;;;;;;2.47;1.20;;;;;;;;;;5070423;28;20029;-69
2022/07/11 02:31:29;;;;;;;2.10;1.48;;;;;;;;;;5071533;28;20021;-69
2022/07/11 02:33:55;;;;;;;1.48;1.20;;;;;;;;;;5072118;28;20027;-69
2022/07/11 02:36:22;;;;;;;1.67;1.10;;;;;;;;;;5087943;28;20023;-69
2022/07/11 02:38:48;;;;;;;2.60;1.35;;;;;;;;;;5071387;28;20394;-69
2022/07/11 02:41:14;;;;;;;2.00;1.40;;;;;;;;;;5071533;28;20032;-68
2022/07/11 02:43:41;;;;;;;4.55;1.58;;;;;;;;;;5071468;28;20032;-68
2022/07/11 02:46:07;;;;;;;2.28;1.10;;;;;;;;;;5071436;28;20028;-69
2022/07/11 02:48:33;;;;;;;2.80;1.33;;;;;;;;;;5088166;28;20024;-68
2022/07/11 02:51:00;;;;;;;2.75;1.40;;;;;;;;;;5070742;28;20032;-69
2022/07/11 02:53:26;;;;;;;4.57;1.50;;;;;;;;;;5069769;28;20012;-69
2022/07/11 02:55:52;;;;;;;2.45;1.30;;;;;;;;;;5069860;28;20033;-69
2022/07/11 02:58:18;;;;;;;1.50;1.40;;;;;;;;;;5071056;28;20044;-69
2022/07/11 03:00:45;;;;;;;3.15;1.48;;;;;;;;;;5071260;28;20029;-68
2022/07/11 03:03:11;;;;;;;1.75;1.65;;;;;;;;;;5070681;28;20053;-69
2022/07/11 03:05:37;;;;;;;1.67;1.27;;;;;;;;;;5070881;28;20021;-69
2022/07/11 03:08:04;;;;;;;3.72;1.52;;;;;;;;;;5070464;28;20509;-69
2022/07/11 03:10:30;;;;;;;1.50;1.40;;;;;;;;;;5070951;28;20408;-69
2022/07/11 03:12:56;;;;;;;2.78;1.50;;;;;;;;;;5071204;28;20033;-68
2022/07/11 03:15:23;;;;;;;3.97;1.27;;;;;;;;;;5071917;28;20062;-68
2022/07/11 03:17:50;;;;;;;4.45;1.70;;;;;;;;;;5070556;28;20485;-69
2022/07/11 03:20:16;;;;;;;3.10;1.50;;;;;;;;;;5070290;28;20036;-68
2022/07/11 03:22:43;;;;;;;2.30;1.33;;;;;;;;;;5070769;28;20031;-68
2022/07/11 03:25:09;;;;;;;2.55;1.60;;;;;;;;;;5070424;28;20017;-69
2022/07/11 03:27:35;;;;;;;2.42;1.48;;;;;;;;;;5071826;28;20026;-69
2022/07/11 03:30:03;;;;;;;1.60;1.33;;;;;;;;;;5071134;28;20024;-68
2022/07/11 03:32:29;;;;;;;2.22;1.30;;;;;;;;;;5070704;28;20020;-68
2022/07/11 03:37:40;;;;;;;2.30;1.40;;;;;;;;;;5070206;28;20028;-69
2022/07/11 03:40:07;;;;;;;1.40;1.30;;;;;;;;;;5070483;28;20044;-68
2022/07/11 03:42:33;;;;;;;4.50;1.65;;;;;;;;;;5071820;28;20024;-68
2022/07/11 03:45:00;;;;;;;4.38;1.30;;;;;;;;;;5070247;28;20225;-68
2022/07/11 03:47:27;;;;;;;4.20;1.60;;;;;;;;;;5067534;28;20028;-69
2022/07/11 03:49:53;;;;;;;3.20;1.50;;;;;;;;;;5070029;28;20016;-68
2022/07/11 03:52:19;;;;;;;2.92;1.60;;;;;;;;;;5070118;28;20025;-69
2022/07/11 03:54:46;;;;;;;2.33;1.42;;;;;;;;;;5068914;28;20439;-68
2022/07/11 03:57:12;;;;;;;5.03;1.63;;;;;;;;;;5069905;28;20415;-68
2022/07/11 03:59:38;;;;;;;3.05;1.25;;;;;;;;;;5070146;28;20033;-69
2022/07/11 04:02:05;;;;;;;3.45;1.63;;;;;;;;;;5070108;28;20038;-69
2022/07/11 04:04:31;;;;;;;2.38;1.60;;;;;;;;;;5070010;28;20024;-68
2022/07/11 04:06:58;;;;;;;2.22;1.63;;;;;;;;;;5070200;28;20020;-68
2022/07/11 04:09:25;;;;;;;3.35;1.60;;;;;;;;;;5070894;28;20036;-68
2022/07/11 04:11:51;;;;;;;8.20;1.85;;;;;;;;;;5069933;28;20025;-68
2022/07/11 04:14:17;;;;;;;3.75;1.52;;;;;;;;;;5069722;28;20032;-68
2022/07/11 04:16:43;;;;;;;4.88;1.80;;;;;;;;;;5070037;28;20093;-69
2022/07/11 04:19:10;;;;;;;2.97;1.77;;;;;;;;;;5069437;28;20045;-68
2022/07/11 04:21:36;;;;;;;3.53;1.50;;;;;;;;;;5071300;28;20023;-68
2022/07/11 04:24:03;;;;;;;2.92;1.40;;;;;;;;;;5069823;28;20485;-68
2022/07/11 04:26:30;;;;;;;4.97;1.90;;;;;;;;;;5069447;28;20424;-68
2022/07/11 04:28:56;;;;;;;7.45;1.60;;;;;;;;;;5069818;28;20401;-69
2022/07/11 04:31:22;;;;;;;4.75;1.98;;;;;;;;;;5069806;28;20039;-68
2022/07/11 04:33:48;;;;;;;2.00;1.50;;;;;;;;;;5070154;28;20465;-68
2022/07/11 04:36:15;;;;;;;2.70;1.80;;;;;;;;;;5070966;28;20482;-69
2022/07/11 04:38:43;;;;;;;2.05;1.60;;;;;;;;;;5073966;28;20025;-69
2022/07/11 04:41:10;;;;;;;2.47;1.60;;;;;;;;;;5072740;28;20032;-68
2022/07/11 04:43:37;;;;;;;4.28;1.55;;;;;;;;;;5073761;28;21454;-69
2022/07/11 04:46:05;;;;;;;2.28;1.35;;;;;;;;;;5073512;28;20402;-68
2022/07/11 04:48:32;;;;;;;6.43;1.55;;;;;;;;;;5074433;28;20035;-68
2022/07/11 04:50:58;;;;;;;7.00;2.17;;;;;;;;;;5073472;28;20021;-68
2022/07/11 04:53:24;;;;;;;4.38;1.58;;;;;;;;;;5073145;28;20032;-69
2022/07/11 04:55:51;;;;;;;3.05;1.65;;;;;;;;;;5071977;28;20095;-69
2022/07/11 04:58:17;;;;;;;5.47;1.75;;;;;;;;;;5073548;28;20043;-69
2022/07/11 05:00:43;;;;;;;3.35;1.95;;;;;;;;;;5074591;28;20024;-67
2022/07/11 05:03:10;;;;;;;3.10;1.60;;;;;;;;;;5072897;28;20013;-68
2022/07/11 05:05:36;;;;;;;2.30;1.88;;;;;;;;;;5073117;28;20081;-68
2022/07/11 05:08:03;;;;;;;6.70;1.80;;;;;;;;;;5072990;28;20032;-68
2022/07/11 05:10:31;;;;;;;4.78;1.88;;;;;;;;;;5070396;28;20024;-68
2022/07/11 05:12:57;;;;;;;2.47;1.60;;;;;;;;;;5073122;28;20029;-68
2022/07/11 05:15:24;;;;;;;3.63;1.98;;;;;;;;;;5089496;28;20042;-68
2022/07/11 05:17:50;;;;;;;6.28;2.13;;;;;;;;;;5072991;28;20030;-68
2022/07/11 05:20:16;;;;;;;4.05;1.70;;;;;;;;;;5072541;28;20397;-68
2022/07/11 05:22:43;;;;;;;6.00;1.98;;;;;;;;;;5072333;28;20470;-68
2022/07/11 05:25:10;;;;;;;3.85;1.92;;;;;;;;;;5072212;28;20021;-68
2022/07/11 05:27:36;;;;;;;4.18;1.90;;;;;;;;;;5074518;28;20024;-69
2022/07/11 05:30:02;;;;;;;4.75;1.67;;;;;;;;;;5072747;28;20035;-66
2022/07/11 05:32:28;;;;;;;6.22;2.10;;;;;;;;;;5069493;28;20067;-67
2022/07/11 05:34:58;;;;;;;3.60;1.80;;;;;;;;;;5072226;28;20050;-68
2022/07/11 05:37:24;;;;;;;5.68;2.00;;;;;;;;;;5072463;28;20495;-69
2022/07/11 05:39:50;;;;;;;5.40;2.10;;;;;;;;;;5073363;28;20039;-68
2022/07/11 05:42:17;;;;;;;2.78;1.70;;;;;;;;;;5073096;28;20032;-69
2022/07/11 05:44:43;;;;;;;8.88;2.00;;;;;;;;;;5071806;28;20024;-68
2022/07/11 05:47:10;;;;;;;1.77;1.65;;;;;;;;;;5072175;28;20021;-68
2022/07/11 05:49:36;;;;;;;2.15;1.95;;;;;;;;;;5071730;28;20024;-68
2022/07/11 05:52:03;;;;;;;2.72;1.80;;;;;;;;;;5071232;28;20019;-68
2022/07/11 05:54:29;;;;;;;3.95;1.98;;;;;;;;;;5073520;28;20032;-68
2022/07/11 05:56:55;;;;;;;5.55;1.80;;;;;;;;;;5072125;28;20009;-68
2022/07/11 05:59:22;;;;;;;6.25;1.95;;;;;;;;;;5072033;28;20035;-68
2022/07/11 06:01:48;;;;;;;5.75;2.08;;;;;;;;;;5072004;28;20431;-69
2022/07/11 06:04:15;;;;;;;4.18;1.65;;;;;;;;;;5071012;28;20028;-69
2022/07/11 06:06:41;;;;;;;3.95;1.70;;;;;;;;;;5073471;28;20028;-69
2022/07/11 06:09:07;;;;;;;4.55;1.85;;;;;;;;;;5071637;28;20703;-68
2022/07/11 06:11:34;;;;;;;5.93;2.00;;;;;;;;;;5072071;28;20027;-68
2022/07/11 06:14:00;;;;;;;4.35;1.77;;;;;;;;;;5071152;28;20024;-68
2022/07/11 06:16:26;;;;;;;3.17;1.63;;;;;;;;;;5071565;28;20558;-69
2022/07/11 06:18:53;;;;;;;6.47;2.08;;;;;;;;;;5072596;28;20035;-69
2022/07/11 06:21:22;;;;;;;7.63;2.67;;;;;;;;;;5072654;28;20047;-68
2022/07/11 06:23:48;;;;;;;2.70;1.70;;;;;;;;;;5070893;28;20032;-69
2022/07/11 06:26:15;;;;;;;4.22;1.90;;;;;;;;;;5071321;28;20089;-69
2022/07/11 06:28:41;;;;;;;3.83;1.80;;;;;;;;;;5070925;28;20388;-69
2022/07/11 06:31:08;;;;;;;4.30;1.95;;;;;;;;;;5071383;28;20032;-69
2022/07/11 06:33:35;;;;;;;3.78;2.03;;;;;;;;;;5072776;28;20016;-69
2022/07/11 06:36:02;;;;;;;4.63;1.95;;;;;;;;;;5070944;28;20013;-69
2022/07/11 06:38:29;;;;;;;4.18;2.15;;;;;;;;;;5071099;28;20077;-69
2022/07/11 06:40:55;;;;;;;2.33;1.90;;;;;;;;;;5070747;28;20415;-69
2022/07/11 06:43:22;;;;;;;4.03;1.60;;;;;;;;;;5070749;28;20024;-69
2022/07/11 06:45:48;;;;;;;3.75;1.77;;;;;;;;;;5072368;28;20138;-69
2022/07/11 06:48:15;;;;;;;3.25;1.90;;;;;;;;;;5071205;28;20020;-69
2022/07/11 06:50:41;;;;;;;7.03;1.88;;;;;;;;;;5070484;28;20065;-69
2022/07/11 06:53:08;;;;;;;5.18;2.33;;;;;;;;;;5070490;28;20060;-70
2022/07/11 06:55:34;;;;;;;2.95;1.90;;;;;;;;;;5070944;28;20031;-70
2022/07/11 06:58:01;;;;;;;2.42;1.88;;;;;;;;;;5070241;28;20034;-69
2022/07/11 07:00:28;;;;;;;2.47;1.85;;;;;;;;;;5071227;28;20043;-69
2022/07/11 07:02:57;;;;;;;3.78;1.83;;;;;;;;;;5070304;28;20027;-70
2022/07/11 07:05:24;;;;;;;9.15;1.77;;;;;;;;;;5070605;28;20044;-69
2022/07/11 07:07:51;;;;;;;4.70;1.90;;;;;;;;;;5070247;28;20520;-69
2022/07/11 07:10:17;;;;;;;7.63;2.03;;;;;;;;;;5070501;28;20039;-69
2022/07/11 07:12:44;;;;;;;5.32;1.80;;;;;;;;;;5071866;28;20499;-69
2022/07/11 07:15:11;;;;;;;2.88;1.63;;;;;;;;;;5070319;28;20028;-70
2022/07/11 07:17:38;;;;;;;3.58;1.60;;;;;;;;;;5070220;28;20027;-76
2022/07/11 07:20:05;;;;;;;5.80;2.03;;;;;;;;;;5070139;28;20054;-70
2022/07/11 07:22:31;;;;;;;2.83;1.80;;;;;;;;;;5070009;28;20508;-70
2022/07/11 07:24:58;;;;;;;6.63;1.92;;;;;;;;;;5069501;28;20017;-70
2022/07/11 07:27:24;;;;;;;2.55;1.67;;;;;;;;;;5071241;28;20102;-70
2022/07/11 07:29:50;;;;;;;7.65;2.05;;;;;;;;;;5068509;28;20354;-69
2022/07/11 07:32:17;;;;;;;3.92;1.70;;;;;;;;;;5068784;28;20093;-70
2022/07/11 07:34:43;;;;;;;7.03;1.90;;;;;;;;;;5068623;28;20017;-70
2022/07/11 07:37:09;;;;;;;2.25;1.70;;;;;;;;;;5068708;28;20363;-70
2022/07/11 07:39:36;;;;;;;5.00;2.00;;;;;;;;;;5070905;28;20040;-70
2022/07/11 07:42:02;;;;;;;3.85;1.67;;;;;;;;;;5068175;28;20027;-71
2022/07/11 07:44:28;;;;;;;5.57;1.63;;;;;;;;;;5068386;28;20553;-70
2022/07/11 07:46:55;;;;;;;2.00;1.80;;;;;;;;;;5065676;28;20400;-71
2022/07/11 07:49:21;;;;;;;7.82;1.77;;;;;;;;;;5067164;28;20489;-71
2022/07/11 07:51:47;;;;;;;2.78;1.73;;;;;;;;;;5066838;28;20036;-71
2022/07/11 07:54:14;;;;;;;7.15;1.75;;;;;;;;;;5064598;28;20493;-71
2022/07/11 07:56:40;;;;;;;6.47;1.90;;;;;;;;;;5064250;28;20056;-71
2022/07/11 07:59:06;;;;;;;3.47;1.90;;;;;;;;;;5068172;28;20033;-71
2022/07/11 08:01:35;;;;;;;4.88;1.80;;;;;;;;;;5067798;28;20032;-71
2022/07/11 08:04:03;;;;;;;4.30;2.03;;;;;;;;;;5068781;28;20404;-71
2022/07/11 08:06:29;;;;;;;3.67;1.80;;;;;;;;;;5069642;28;20428;-71
2022/07/11 08:08:55;;;;;;;4.43;1.77;;;;;;;;;;5064077;28;20052;-71
2022/07/11 08:11:22;;;;;;;4.45;1.80;;;;;;;;;;5066791;28;20058;-71
2022/07/11 08:13:49;;;;;;;4.03;1.80;;;;;;;;;;5067849;28;20027;-71
2022/07/11 08:16:15;;;;;;;5.40;1.70;;;;;;;;;;5066002;28;20042;-71
2022/07/11 08:18:42;;;;;;;3.05;1.88;;;;;;;;;;5069289;28;20034;-73
2022/07/11 08:21:09;;;;;;;5.63;1.77;;;;;;;;;;5066391;28;20052;-71
2022/07/11 08:23:36;;;;;;;3.28;1.70;;;;;;;;;;5068482;28;20494;-72
2022/07/11 08:26:02;;;;;;;2.72;1.92;;;;;;;;;;5067112;28;20508;-71
2022/07/11 08:28:28;;;;;;;5.03;2.05;;;;;;;;;;5069208;28;20392;-72
2022/07/11 08:30:55;;;;;;;5.10;1.80;;;;;;;;;;5069713;28;20016;-70
2022/07/11 08:33:21;;;;;;;2.80;2.17;;;;;;;;;;5070623;28;20020;-70
2022/07/11 08:35:47;;;;;;;4.30;2.42;;;;;;;;;;5085030;28;20046;-70
2022/07/11 08:38:14;;;;;;;7.82;1.95;;;;;;;;;;5068964;28;20032;-70
2022/07/11 08:40:43;;;;;;;3.95;1.88;;;;;;;;;;5069548;28;20456;-71
2022/07/11 08:43:14;;;;;;;5.57;1.55;;;;;;;;;;5069190;28;20032;-70
2022/07/11 08:45:40;;;;;;;5.40;2.40;;;;;;;;;;5070553;28;20027;-70
2022/07/11 08:48:08;;;;;;;5.00;1.70;;;;;;;;;;5069259;28;20031;-70
2022/07/11 08:50:35;;;;;;;7.45;2.17;;;;;;;;;;5069115;28;20507;-70
2022/07/11 08:53:20;;;;;;;9.38;2.00;;;;;;;;;;5068615;28;20029;-70
2022/07/11 08:55:47;;;;;;;2.25;1.70;;;;;;;;;;5064195;28;20029;-70
2022/07/11 08:58:14;;;;;;;7.90;2.00;;;;;;;;;;5067192;28;20017;-71
2022/07/11 09:00:42;;;;;;;5.32;1.98;;;;;;;;;;5070499;28;20065;-70
2022/07/11 09:03:13;;;;;;;4.25;1.50;;;;;;;;;;5069170;28;20021;-69
2022/07/11 09:05:39;;;;;;;4.10;1.65;;;;;;;;;;5066056;28;20406;-69
2022/07/11 09:08:06;;;;;;;3.80;1.88;;;;;;;;;;5068630;28;20051;-70
2022/07/11 09:10:32;;;;;;;2.00;1.90;;;;;;;;;;5068320;28;20039;-70
2022/07/11 09:16:04;;;;;;;6.25;2.00;;;;;;;;;;5067456;28;20031;-71
2022/07/11 09:18:30;;;;;;;8.60;2.72;;;;;;;;;;5069434;28;20397;-70
2022/07/11 09:26:44;;;;;;;5.28;1.60;;;;;;;;;;5070318;28;20039;-69
2022/07/11 09:29:12;;;;;;;3.13;1.70;;;;;;;;;;5071865;28;20016;-69
2022/07/11 09:31:40;;;;;;;3.97;1.80;;;;;;;;;;5070059;28;20497;-70
2022/07/11 09:34:10;;;;;;;4.55;1.83;;;;;;;;;;5071133;28;20046;-71
2022/07/11 09:36:55;;;;;;;4.70;1.90;;;;;;;;;;5072202;28;20028;-70
2022/07/11 09:39:23;;;;;;;4.57;2.20;;;;;;;;;;5072715;28;20036;-70
2022/07/11 09:44:54;;;;;;;3.75;1.98;;;;;;;;;;5069869;28;20021;-70
2022/07/11 09:50:25;;;;;;;2.75;1.80;;;;;;;;;;5069914;28;20043;-71
2022/07/11 09:53:01;;;;;;;2.30;1.70;;;;;;;;;;5069062;28;20024;-70
2022/07/11 09:55:28;;;;;;;5.00;1.58;;;;;;;;;;5070689;28;20024;-71
2022/07/11 09:57:54;;;;;;;3.78;1.90;;;;;;;;;;5070942;28;20054;-71
2022/07/11 10:00:21;;;;;;;2.85;1.63;;;;;;;;;;5071937;28;20029;-70
2022/07/11 10:02:49;;;;;;;6.68;1.70;;;;;;;;;;5071443;28;20416;-71
2022/07/11 10:05:15;;;;;;;5.82;1.70;;;;;;;;;;5067620;28;20052;-71
2022/07/11 10:07:41;;;;;;;2.35;1.60;;;;;;;;;;5070538;28;20031;-71
2022/07/11 10:10:10;;;;;;;4.47;1.90;;;;;;;;;;5071250;28;20016;-71
2022/07/11 10:12:36;;;;;;;2.95;1.70;;;;;;;;;;5072128;28;20031;-70
2022/07/11 10:15:06;;;;;;;5.18;1.75;;;;;;;;;;5064735;28;20021;-69
2022/07/11 10:17:35;;;;;;;6.55;1.67;;;;;;;;;;5065777;28;20028;-71
2022/07/11 10:20:21;;;;;;;7.20;1.70;;;;;;;;;;5070097;28;20046;-70
2022/07/11 10:22:50;;;;;;;5.63;1.60;;;;;;;;;;5066577;28;20028;-71
2022/07/11 10:25:35;;;;;;;3.95;1.50;;;;;;;;;;5070494;28;20043;-70
2022/07/11 10:28:01;;;;;;;5.28;1.63;;;;;;;;;;5069863;28;20016;-69
2022/07/11 10:30:45;;;;;;;5.45;1.70;;;;;;;;;;5071272;28;20036;-70
2022/07/11 10:33:11;;;;;;;2.97;1.48;;;;;;;;;;5067339;28;20025;-70
2022/07/11 10:35:40;;;;;;;8.00;1.65;;;;;;;;;;5068363;28;20024;-71
2022/07/11 10:38:07;;;;;;;3.38;1.60;;;;;;;;;;5070240;28;20124;-71
2022/07/11 10:40:43;;;;;;;1.67;1.40;;;;;;;;;;5069856;28;20028;-70
2022/07/11 10:43:10;;;;;;;2.05;1.45;;;;;;;;;;5069912;28;20032;-70
2022/07/11 10:45:55;;;;;;;1.88;1.35;;;;;;;;;;5070933;28;20020;-70
2022/07/11 10:48:22;;;;;;;6.82;1.40;;;;;;;;;;5071267;28;20025;-70
2022/07/11 10:50:53;;;;;;;3.22;1.23;;;;;;;;;;5069332;28;20021;-70
2022/07/11 10:53:23;;;;;;;2.72;1.20;;;;;;;;;;5067794;28;20021;-71
2022/07/11 10:56:03;;;;;;;3.20;1.35;;;;;;;;;;5069324;28;20401;-70
2022/07/11 10:58:30;;;;;;;5.03;1.30;;;;;;;;;;5068701;28;20501;-71
2022/07/11 11:01:10;;;;;;;2.47;1.33;;;;;;;;;;5068293;28;20029;-71
2022/07/11 11:03:36;;;;;;;2.60;1.25;;;;;;;;;;5071086;28;20082;-70
2022/07/11 11:06:03;;;;;;;1.88;1.38;;;;;;;;;;5069186;28;20224;-71
2022/07/11 11:08:33;;;;;;;1.70;1.20;;;;;;;;;;5069393;28;20049;-70
2022/07/11 11:11:03;;;;;;;1.38;1.10;;;;;;;;;;5067671;28;20036;-70
2022/07/11 11:13:30;;;;;;;3.35;1.20;;;;;;;;;;5069811;28;20397;-71
2022/07/11 11:15:58;;;;;;;2.03;1.10;;;;;;;;;;5068814;28;20028;-70
2022/07/11 11:18:24;;;;;;;3.03;1.17;;;;;;;;;;5085819;28;20038;-70
2022/07/11 11:21:01;;;;;;;1.55;1.10;;;;;;;;;;5069625;28;20519;-70
2022/07/11 11:23:31;;;;;;;3.75;1.20;;;;;;;;;;5068674;28;20043;-71
2022/07/11 11:26:07;;;;;;;1.77;1.02;;;;;;;;;;5067130;28;20028;-70
2022/07/11 11:28:34;;;;;;;1.40;1.10;;;;;;;;;;5069610;28;20378;-70
2022/07/11 11:31:02;;;;;;;1.27;1.10;;;;;;;;;;5071137;28;20013;-71
2022/07/11 11:33:29;;;;;;;1.85;1.00;;;;;;;;;;5070500;28;20081;-70
2022/07/11 11:36:06;;;;;;;0.98;0.95;;;;;;;;;;5068919;28;20016;-70
2022/07/11 11:38:36;;;;;;;2.08;1.30;;;;;;;;;;5066638;28;20025;-71
2022/07/11 11:41:05;;;;;;;1.25;0.98;;;;;;;;;;5070188;28;20017;-71
2022/07/11 11:43:31;;;;;;;3.40;1.33;;;;;;;;;;5070129;28;20025;-71
2022/07/11 11:45:58;;;;;;;5.13;1.40;;;;;;;;;;5068182;28;20025;-70
2022/07/11 11:48:27;;;;;;;3.17;0.90;;;;;;;;;;5069627;28;20016;-71
2022/07/11 11:51:01;;;;;;;2.97;1.17;;;;;;;;;;5069828;28;20021;-71
2022/07/11 11:53:27;;;;;;;2.60;1.10;;;;;;;;;;5068126;28;20374;-70
2022/07/11 11:55:53;;;;;;;5.35;1.23;;;;;;;;;;5070124;28;20483;-71
2022/07/11 11:58:20;;;;;;;3.10;1.13;;;;;;;;;;5069300;28;20023;-70
2022/07/11 12:00:54;;;;;;;2.22;1.00;;;;;;;;;;5071296;28;20039;-71
2022/07/11 12:03:20;;;;;;;1.50;1.30;;;;;;;;;;5069404;28;20025;-71
2022/07/11 12:05:54;;;;;;;3.35;1.10;;;;;;;;;;5068981;28;20016;-71
2022/07/11 12:08:27;;;;;;;2.30;1.15;;;;;;;;;;5069185;28;20062;-71
2022/07/11 12:10:54;;;;;;;5.40;1.30;;;;;;;;;;5051438;28;20031;-72
2022/07/11 12:13:21;;;;;;;4.47;1.05;;;;;;;;;;5069247;28;20017;-69
2022/07/11 12:18:49;;;;;;;3.35;0.90;;;;;;;;;;5047641;28;20528;-74
2022/07/11 12:21:15;;;;;;;1.53;1.10;;;;;;;;;;5046363;28;20556;-73
2022/07/11 12:23:41;;;;;;;3.97;1.08;;;;;;;;;;5046766;28;20263;-74
2022/07/11 12:26:08;;;;;;;1.98;1.10;;;;;;;;;;5046659;28;20041;-72
2022/07/11 12:28:35;;;;;;;2.83;1.20;;;;;;;;;;5044258;28;20559;-70
2022/07/11 12:31:01;;;;;;;3.35;1.08;;;;;;;;;;5047649;28;20043;-73
2022/07/11 12:33:28;;;;;;;4.25;1.10;;;;;;;;;;5047459;28;20036;-72
2022/07/11 12:36:02;;;;;;;2.78;1.15;;;;;;;;;;5044329;28;20037;-70
2022/07/11 12:38:47;;;;;;;1.02;0.93;;;;;;;;;;5046080;28;20036;-72
2022/07/11 12:41:14;;;;;;;1.30;1.20;;;;;;;;;;5046289;28;20044;-75
2022/07/11 12:46:25;;;;;;;0.88;0.80;;;;;;;;;;5045984;28;20621;-73
2022/07/11 12:48:52;;;;;;;2.78;0.90;;;;;;;;;;5047583;28;20035;-74
2022/07/11 12:51:26;;;;;;;2.60;1.25;;;;;;;;;;5048143;28;20044;-75
2022/07/11 12:53:58;;;;;;;2.25;1.02;;;;;;;;;;5049000;28;20375;-77
2022/07/11 12:56:25;;;;;;;2.35;0.95;;;;;;;;;;5068650;28;20232;-74
2022/07/11 12:58:51;;;;;;;2.22;0.98;;;;;;;;;;5070490;28;20020;-77
2022/07/11 13:01:17;;;;;;;1.63;1.00;;;;;;;;;;5068150;28;20027;-71
2022/07/11 13:03:44;;;;;;;3.25;1.02;;;;;;;;;;5072447;28;20077;-71
2022/07/11 13:06:10;;;;;;;1.85;1.08;;;;;;;;;;5072352;28;20033;-74
2022/07/11 13:08:44;;;;;;;3.15;1.20;;;;;;;;;;5072169;28;20404;-80
2022/07/11 13:11:19;;;;;;;6.57;1.40;;;;;;;;;;5069964;28;20031;-75
2022/07/11 13:13:49;;;;;;;3.13;1.00;;;;;;;;;;5072310;28;20020;-75
2022/07/11 13:16:16;;;;;;;1.77;1.02;;;;;;;;;;5070349;28;20031;-72
2022/07/11 13:18:42;;;;;;;1.35;1.10;;;;;;;;;;5073213;28;20400;-71
2022/07/11 13:21:08;;;;;;;1.92;1.00;;;;;;;;;;5072281;28;20017;-72
2022/07/11 13:23:35;;;;;;;1.77;0.80;;;;;;;;;;5072419;28;20028;-71
2022/07/11 13:26:02;;;;;;;1.60;0.90;;;;;;;;;;5070983;28;20017;-71
2022/07/11 13:28:28;;;;;;;2.45;0.93;;;;;;;;;;5071414;28;20085;-71
2022/07/11 13:30:55;;;;;;;3.13;1.00;;;;;;;;;;5072424;28;20029;-71
2022/07/11 13:33:21;;;;;;;5.10;1.05;;;;;;;;;;5073219;28;20023;-71
2022/07/11 13:35:49;;;;;;;1.13;1.00;;;;;;;;;;5072475;28;20511;-72
2022/07/11 13:38:16;;;;;;;2.03;0.95;;;;;;;;;;5069594;28;20024;-72
2022/07/11 13:40:42;;;;;;;1.17;0.85;;;;;;;;;;5071013;28;20478;-72
2022/07/11 13:43:13;;;;;;;4.28;1.00;;;;;;;;;;5071773;28;20035;-72
2022/07/11 13:45:40;;;;;;;1.98;0.95;;;;;;;;;;5073655;28;20025;-72
2022/07/11 13:48:06;;;;;;;0.75;0.70;;;;;;;;;;5071230;28;20028;-71
2022/07/11 13:50:33;;;;;;;1.75;1.02;;;;;;;;;;5070727;28;20523;-72
2022/07/11 13:52:59;;;;;;;2.53;1.00;;;;;;;;;;5070757;28;20485;-72
2022/07/11 13:55:29;;;;;;;2.03;0.90;;;;;;;;;;5070919;28;20432;-72
2022/07/11 13:57:57;;;;;;;2.05;0.90;;;;;;;;;;5072747;28;20501;-71
2022/07/11 14:00:23;;;;;;;3.70;1.00;;;;;;;;;;5059528;28;20059;-71
2022/07/11 14:02:50;;;;;;;2.92;1.10;;;;;;;;;;5070473;28;20038;-71
2022/07/11 14:05:18;;;;;;;1.58;1.00;;;;;;;;;;5069828;28;20028;-72
2022/07/11 14:07:44;;;;;;;2.40;0.95;;;;;;;;;;5070292;28;20543;-72
2022/07/11 14:10:11;;;;;;;2.38;1.10;;;;;;;;;;5070298;28;20032;-72
2022/07/11 14:12:38;;;;;;;3.45;1.10;;;;;;;;;;5072411;28;20412;-71
2022/07/11 14:15:04;;;;;;;1.75;0.80;;;;;;;;;;5070382;28;20032;-71
2022/07/11 14:17:31;;;;;;;3.40;1.00;;;;;;;;;;5070069;28;20027;-71
2022/07/11 14:19:57;;;;;;;3.33;0.90;;;;;;;;;;5070548;28;20024;-71
2022/07/11 14:22:24;;;;;;;6.75;1.20;;;;;;;;;;5070350;28;20024;-71
2022/07/11 14:24:50;;;;;;;1.10;0.98;;;;;;;;;;5072490;28;20392;-71
2022/07/11 14:27:16;;;;;;;1.42;0.90;;;;;;;;;;5070508;28;20046;-71
2022/07/11 14:29:43;;;;;;;0.80;0.80;;;;;;;;;;5070063;28;20512;-71
2022/07/11 14:32:10;;;;;;;1.25;0.90;;;;;;;;;;5067202;28;20028;-71
2022/07/11 14:34:36;;;;;;;1.77;0.93;;;;;;;;;;5069833;28;20027;-71
2022/07/11 14:37:03;;;;;;;0.80;0.80;;;;;;;;;;5071768;28;20069;-70
2022/07/11 14:39:30;;;;;;;1.77;1.05;;;;;;;;;;5071426;28;20439;-71
2022/07/11 14:41:56;;;;;;;1.98;0.90;;;;;;;;;;5069338;28;20024;-70
2022/07/11 14:44:22;;;;;;;1.83;1.00;;;;;;;;;;5069507;28;20033;-70
2022/07/11 14:46:49;;;;;;;0.82;0.70;;;;;;;;;;5069909;28;20012;-71
2022/07/11 14:49:15;;;;;;;2.88;0.88;;;;;;;;;;5054574;28;20020;-70
2022/07/11 14:51:41;;;;;;;2.38;0.90;;;;;;;;;;5071536;28;20025;-70
2022/07/11 14:54:08;;;;;;;0.90;0.68;;;;;;;;;;5069348;28;20033;-71
2022/07/11 14:56:34;;;;;;;1.52;0.80;;;;;;;;;;5068031;28;20435;-71
2022/07/11 14:59:01;;;;;;;2.53;0.73;;;;;;;;;;5069443;28;20024;-70
2022/07/11 15:01:27;;;;;;;1.83;0.80;;;;;;;;;;5069615;28;20066;-71
2022/07/11 15:03:54;;;;;;;2.50;0.85;;;;;;;;;;5071881;28;20403;-71
2022/07/11 15:06:23;;;;;;;0.85;0.80;;;;;;;;;;5068774;28;20031;-71
2022/07/11 15:14:37;;;;;;;0.70;0.70;;;;;;;;;;5069390;28;20024;-71